Time;durP1;ratioP1;P1;durP2;ratioP2;P2;SDS_P1;SDS_P2;PMS_P1;PMS_P2;Temp;Humidity;BMP_temperature;BMP_pressure;BME280_temperature;BME280_humidity;BME280_pressure;Samples;Min_cycle;Max_cycle;Signal;HPM_P1;HPM_P2
2022/10/02 04:01:32;;;;;;;2.25;1.10;;;10.40;99.90;;;;;;6216181;22;20215;-67
2022/10/02 04:04:04;;;;;;;6.53;1.98;;;10.40;99.90;;;;;;6239083;23;20168;-68
2022/10/02 04:06:41;;;;;;;1.33;1.27;;;10.40;99.90;;;;;;6241943;23;20168;-68
2022/10/02 04:09:14;;;;;;;1.50;1.42;;;10.40;99.90;;;;;;6241992;23;20162;-70
2022/10/02 04:11:47;;;;;;;1.70;1.70;;;10.40;99.90;;;;;;6240240;22;20204;-68
2022/10/02 04:14:18;;;;;;;5.13;1.25;;;10.40;99.90;;;;;;6241175;23;20186;-70
2022/10/02 04:16:51;;;;;;;2.30;2.05;;;10.40;99.90;;;;;;6242090;23;20171;-68
2022/10/02 04:19:23;;;;;;;1.30;1.20;;;10.50;99.90;;;;;;6242147;23;20163;-68
2022/10/02 04:21:56;;;;;;;5.35;1.85;;;10.50;99.90;;;;;;6241419;22;20219;-67
2022/10/02 04:24:29;;;;;;;3.50;1.13;;;10.60;99.90;;;;;;6241791;23;20168;-70
2022/10/02 04:27:03;;;;;;;1.45;1.45;;;10.60;99.90;;;;;;6241918;23;20172;-70
2022/10/02 04:29:35;;;;;;;10.55;2.03;;;10.70;99.90;;;;;;6242390;23;20169;-70
2022/10/02 04:32:12;;;;;;;1.73;1.42;;;10.70;99.90;;;;;;6239408;22;20215;-69
2022/10/02 04:34:39;;;;;;;1.23;1.23;;;10.70;99.90;;;;;;6241721;23;20220;-70
2022/10/02 04:37:21;;;;;;;1.20;1.20;;;10.60;99.90;;;;;;6241382;23;20180;-69
2022/10/02 04:40:04;;;;;;;2.05;1.95;;;10.60;99.90;;;;;;6242440;23;20183;-70
2022/10/02 04:42:44;;;;;;;2.63;1.27;;;10.50;99.90;;;;;;6240446;22;20199;-70
2022/10/02 04:45:29;;;;;;;4.03;1.23;;;10.50;99.90;;;;;;6242363;23;20167;-71
2022/10/02 04:48:28;;;;;;;2.03;1.45;;;10.40;99.90;;;;;;6243159;23;20168;-70
2022/10/02 04:50:59;;;;;;;1.10;1.10;;;10.40;99.90;;;;;;6241093;22;20205;-70
2022/10/02 04:53:43;;;;;;;2.00;1.88;;;10.40;99.90;;;;;;6240435;23;20493;-67
2022/10/02 04:56:31;;;;;;;1.13;1.00;;;10.40;99.90;;;;;;6242128;23;20165;-69
2022/10/02 04:59:10;;;;;;;4.95;1.95;;;10.40;99.90;;;;;;6241775;23;20209;-69
2022/10/02 05:01:52;;;;;;;1.30;1.30;;;10.40;99.90;;;;;;6240339;22;20207;-69
2022/10/02 05:04:39;;;;;;;24.17;2.97;;;10.40;99.90;;;;;;6240457;23;20171;-70
2022/10/02 05:07:19;;;;;;;6.13;1.85;;;10.50;99.90;;;;;;6240764;23;20219;-69
2022/10/02 05:10:00;;;;;;;2.40;2.20;;;10.50;99.90;;;;;;6241859;23;20176;-67
2022/10/02 05:12:44;;;;;;;5.97;1.90;;;10.50;99.90;;;;;;6240407;22;20225;-69
2022/10/02 05:15:23;;;;;;;3.35;3.05;;;10.60;99.90;;;;;;6241342;23;20592;-69
2022/10/02 05:18:06;;;;;;;7.00;2.90;;;10.60;99.90;;;;;;6241080;23;20182;-70
2022/10/02 05:20:52;;;;;;;2.17;2.15;;;10.70;99.90;;;;;;6241549;22;20560;-70
2022/10/02 05:23:30;;;;;;;2.92;2.70;;;10.70;99.90;;;;;;6241347;23;20164;-68
2022/10/02 05:26:09;;;;;;;3.10;2.90;;;10.70;99.90;;;;;;6241157;23;20606;-69
2022/10/02 05:28:56;;;;;;;4.28;3.03;;;10.70;99.90;;;;;;6241743;23;20168;-70
2022/10/02 05:31:33;;;;;;;9.48;3.60;;;10.70;99.90;;;;;;6240735;22;20199;-69
2022/10/02 05:34:16;;;;;;;3.80;3.55;;;10.80;99.90;;;;;;6240713;23;20168;-69
2022/10/02 05:36:58;;;;;;;12.70;2.92;;;10.80;99.90;;;;;;6241930;23;20175;-70
2022/10/02 05:39:29;;;;;;;10.32;2.58;;;10.80;99.90;;;;;;6240510;23;20300;-70
2022/10/02 05:42:01;;;;;;;3.70;3.50;;;10.80;99.90;;;;;;6241464;22;20209;-70
2022/10/02 05:44:37;;;;;;;2.78;2.58;;;10.90;99.90;;;;;;6240189;23;20169;-70
2022/10/02 05:47:11;;;;;;;3.05;2.67;;;10.80;99.90;;;;;;6240721;23;20176;-70
2022/10/02 05:49:40;;;;;;;3.15;2.92;;;10.80;99.90;;;;;;6240947;23;20243;-69
2022/10/02 05:52:13;;;;;;;3.33;3.05;;;10.80;99.90;;;;;;6241355;22;20257;-70
2022/10/02 05:54:48;;;;;;;8.10;2.85;;;10.90;99.90;;;;;;6240760;23;20166;-70
2022/10/02 05:57:23;;;;;;;3.20;2.75;;;10.90;99.90;;;;;;6241193;23;20253;-67
2022/10/02 05:59:59;;;;;;;12.70;3.42;;;10.90;99.90;;;;;;6241745;23;20158;-68
2022/10/02 06:02:34;;;;;;;5.90;2.50;;;11.00;99.90;;;;;;6238781;22;20211;-69
2022/10/02 06:05:05;;;;;;;5.10;2.95;;;11.00;99.90;;;;;;6239028;23;20179;-70
2022/10/02 06:07:34;;;;;;;9.63;3.40;;;11.10;99.90;;;;;;6240512;23;20179;-68
2022/10/02 06:10:06;;;;;;;9.00;3.13;;;11.20;99.90;;;;;;6243341;23;20188;-69
2022/10/02 06:12:38;;;;;;;9.00;3.05;;;11.30;99.90;;;;;;6243189;22;20204;-69
2022/10/02 06:15:10;;;;;;;2.85;2.65;;;11.40;99.90;;;;;;6242403;23;20169;-69
2022/10/02 06:17:41;;;;;;;3.70;3.40;;;11.50;99.90;;;;;;6241949;23;20167;-69
2022/10/02 06:20:17;;;;;;;8.82;2.60;;;11.50;99.90;;;;;;6243168;23;20162;-67
2022/10/02 06:22:51;;;;;;;14.55;2.83;;;11.60;99.90;;;;;;6243171;23;20508;-68
2022/10/02 06:25:23;;;;;;;12.45;2.72;;;11.70;99.90;;;;;;6243042;23;20177;-69
2022/10/02 06:27:55;;;;;;;4.28;3.30;;;11.80;99.90;;;;;;6244152;23;20160;-68
2022/10/02 06:30:22;;;;;;;2.80;2.08;;;11.80;99.90;;;;;;6243540;22;20486;-69
2022/10/02 06:32:54;;;;;;;4.68;2.42;;;11.80;99.90;;;;;;6243016;23;20187;-69
2022/10/02 06:35:37;;;;;;;4.78;2.80;;;11.80;99.90;;;;;;6242098;23;20171;-69
2022/10/02 06:38:18;;;;;;;3.40;2.58;;;11.80;99.90;;;;;;6242230;23;20186;-69
2022/10/02 06:40:50;;;;;;;1.73;1.73;;;11.80;99.90;;;;;;6243234;22;20774;-67
2022/10/02 06:43:41;;;;;;;4.93;2.17;;;11.80;99.90;;;;;;6241635;23;20493;-67
2022/10/02 06:46:22;;;;;;;3.28;2.65;;;11.80;99.90;;;;;;6241187;23;20754;-70
2022/10/02 06:48:57;;;;;;;5.68;3.17;;;11.90;99.90;;;;;;6242928;23;20163;-68
2022/10/02 06:51:34;;;;;;;2.58;2.38;;;11.90;99.90;;;;;;6242979;22;20673;-70
2022/10/02 06:54:18;;;;;;;3.63;3.33;;;11.90;99.90;;;;;;6243019;23;20173;-69
2022/10/02 06:57:01;;;;;;;3.40;3.15;;;11.90;99.90;;;;;;6241635;23;20233;-69
2022/10/02 06:59:39;;;;;;;3.50;2.20;;;11.80;99.90;;;;;;6242675;23;20507;-69
2022/10/02 07:02:22;;;;;;;1.80;1.70;;;11.80;99.90;;;;;;6241737;22;20763;-69
2022/10/02 07:05:07;;;;;;;1.70;1.70;;;11.70;99.90;;;;;;6242517;23;20181;-67
2022/10/02 07:07:48;;;;;;;2.40;2.20;;;11.70;99.90;;;;;;6242872;23;20190;-69
2022/10/02 07:10:26;;;;;;;2.33;2.22;;;11.70;99.90;;;;;;6242870;22;20254;-69
2022/10/02 07:13:12;;;;;;;1.42;1.42;;;11.70;99.90;;;;;;6241862;23;20170;-69
2022/10/02 07:16:12;;;;;;;1.60;1.50;;;11.80;99.90;;;;;;6242642;23;20180;-70
2022/10/02 07:18:53;;;;;;;1.73;1.63;;;11.80;99.90;;;;;;6232590;23;20199;-69
2022/10/02 07:21:33;;;;;;;3.05;2.38;;;11.90;99.90;;;;;;6241676;22;20567;-70
2022/10/02 07:24:11;;;;;;;5.43;3.70;;;11.90;99.90;;;;;;6241982;23;20163;-69
2022/10/02 07:26:49;;;;;;;2.90;2.70;;;12.00;99.90;;;;;;6241570;23;20175;-70
2022/10/02 07:29:37;;;;;;;4.80;3.35;;;12.00;99.90;;;;;;6242539;23;20735;-69
2022/10/02 07:32:42;;;;;;;3.13;2.92;;;12.00;99.90;;;;;;6242310;22;20199;-70
2022/10/02 07:35:28;;;;;;;3.77;3.60;;;12.00;99.90;;;;;;6241518;23;20164;-69
2022/10/02 07:38:07;;;;;;;3.50;2.60;;;12.00;99.90;;;;;;6240306;23;20414;-69
2022/10/02 07:40:38;;;;;;;3.80;2.90;;;12.10;99.90;;;;;;6239365;22;20447;-69
2022/10/02 07:43:23;;;;;;;2.30;2.20;;;12.20;99.90;;;;;;6239657;23;20428;-68
2022/10/02 07:45:56;;;;;;;3.33;3.03;;;12.20;99.90;;;;;;6242953;23;20174;-69
2022/10/02 07:48:44;;;;;;;11.63;3.00;;;12.20;99.90;;;;;;6241534;23;20479;-68
2022/10/02 07:51:48;;;;;;;3.13;2.75;;;12.30;99.90;;;;;;6228532;22;20441;-68
2022/10/02 07:54:45;;;;;;;10.30;4.18;;;12.30;99.90;;;;;;6241881;23;20214;-68
2022/10/02 07:57:26;;;;;;;2.20;1.97;;;12.40;99.90;;;;;;6234300;23;20198;-67
2022/10/02 08:00:00;;;;;;;1.67;1.67;;;12.40;99.90;;;;;;6240791;23;20432;-68
2022/10/02 08:02:32;;;;;;;1.73;1.73;;;12.50;99.90;;;;;;6241770;22;20523;-68
2022/10/02 08:05:04;;;;;;;3.13;2.20;;;12.60;99.90;;;;;;6242048;23;20406;-66
2022/10/02 08:07:31;;;;;;;2.13;2.00;;;12.60;99.90;;;;;;6242940;23;20456;-68
2022/10/02 08:10:05;;;;;;;5.53;2.53;;;12.60;99.90;;;;;;6242384;23;20425;-68
2022/10/02 08:12:38;;;;;;;2.37;2.27;;;12.80;99.90;;;;;;6241220;22;20448;-69
2022/10/02 08:15:14;;;;;;;6.73;2.37;;;13.00;99.90;;;;;;6241157;23;20406;-67
2022/10/02 08:17:48;;;;;;;2.23;2.13;;;13.10;99.90;;;;;;6241601;23;20468;-69
2022/10/02 08:20:22;;;;;;;2.00;1.90;;;13.30;99.90;;;;;;6242072;22;20505;-67
2022/10/02 08:22:53;;;;;;;2.20;2.10;;;13.50;99.90;;;;;;6242292;23;20472;-69
2022/10/02 08:25:24;;;;;;;2.33;2.23;;;13.60;99.90;;;;;;6242362;23;20418;-68
2022/10/02 08:27:55;;;;;;;3.07;2.70;;;13.70;99.90;;;;;;6241637;23;20411;-68
2022/10/02 08:30:24;;;;;;;2.97;2.30;;;13.60;99.90;;;;;;6243176;22;20403;-70
2022/10/02 08:32:50;;;;;;;4.00;2.60;;;13.50;99.90;;;;;;6242054;23;20433;-69
2022/10/02 08:35:19;;;;;;;6.40;2.13;;;13.50;99.90;;;;;;6242538;23;20422;-69
2022/10/02 08:38:09;;;;;;;2.57;2.37;;;13.50;99.90;;;;;;6242445;23;20786;-69
2022/10/02 08:41:14;;;;;;;3.13;2.70;;;13.40;99.90;;;;;;6243004;22;20440;-68
2022/10/02 08:44:16;;;;;;;6.90;4.27;;;13.30;99.90;;;;;;6242716;23;20765;-68
2022/10/02 08:47:20;;;;;;;2.23;2.00;;;13.20;99.90;;;;;;6242233;23;20787;-68
2022/10/02 08:50:34;;;;;;;3.13;3.03;;;13.20;99.90;;;;;;6246003;23;20398;-69
2022/10/02 08:53:31;;;;;;;2.33;2.13;;;13.20;99.90;;;;;;6211826;23;20703;-71
2022/10/02 08:56:11;;;;;;;2.20;2.10;;;13.20;99.90;;;;;;6237468;23;20444;-68
2022/10/02 08:59:17;;;;;;;3.40;1.60;;;13.20;99.90;;;;;;6241749;23;20445;-68
2022/10/02 09:02:13;;;;;;;3.63;2.40;;;13.10;99.90;;;;;;6241789;22;20505;-67
2022/10/02 09:05:25;;;;;;;4.27;3.80;;;13.20;99.90;;;;;;6241606;23;20406;-69
2022/10/02 09:08:34;;;;;;;5.50;4.20;;;13.20;99.90;;;;;;6200007;23;20452;-67
2022/10/02 09:11:37;;;;;;;6.50;2.57;;;13.30;99.90;;;;;;6156968;23;20441;-69
2022/10/02 09:14:38;;;;;;;3.33;3.20;;;13.40;99.90;;;;;;6241566;23;20417;-70
2022/10/02 09:17:34;;;;;;;3.00;2.70;;;13.60;99.90;;;;;;6240846;23;20421;-69
2022/10/02 09:20:26;;;;;;;3.20;3.10;;;13.70;99.90;;;;;;6241475;23;20450;-69
2022/10/02 09:23:26;;;;;;;2.13;2.03;;;13.80;99.90;;;;;;6240936;23;20730;-68
2022/10/02 09:25:58;;;;;;;4.03;3.57;;;14.00;99.90;;;;;;6241126;23;20418;-69
2022/10/02 09:28:55;;;;;;;3.67;3.17;;;14.20;99.90;;;;;;6241424;23;20498;-69
2022/10/02 09:31:51;;;;;;;3.13;2.73;;;14.50;99.90;;;;;;6239588;22;20462;-70
2022/10/02 09:34:54;;;;;;;4.53;3.00;;;14.60;99.90;;;;;;6240294;23;20411;-69
2022/10/02 09:37:49;;;;;;;2.60;2.57;;;14.80;99.90;;;;;;6246428;23;20422;-70
2022/10/02 09:40:53;;;;;;;6.73;3.20;;;14.90;99.90;;;;;;6247439;22;20439;-69
2022/10/02 09:43:50;;;;;;;2.90;2.60;;;15.00;99.90;;;;;;6245412;23;20958;-69
2022/10/02 09:46:41;;;;;;;2.50;2.20;;;15.10;99.90;;;;;;6244413;23;20412;-70
2022/10/02 09:49:49;;;;;;;2.57;2.30;;;14.90;99.90;;;;;;6243138;23;20760;-70
2022/10/02 09:52:54;;;;;;;4.83;1.83;;;14.80;99.90;;;;;;6148800;23;20916;-70
2022/10/02 09:55:52;;;;;;;2.97;2.33;;;14.70;99.90;;;;;;6197396;23;20437;-68
2022/10/02 09:58:47;;;;;;;2.40;2.10;;;14.70;99.90;;;;;;6242349;23;20422;-70
2022/10/02 10:01:38;;;;;;;0.80;0.80;;;14.60;99.90;;;;;;6242891;22;20450;-70
2022/10/02 10:04:45;;;;;;;0.30;0.30;;;13.70;99.90;;;;;;6242951;23;20409;-71
2022/10/02 10:08:01;;;;;;;0.83;0.83;;;12.80;99.90;;;;;;6242795;23;20425;-70
2022/10/02 10:11:00;;;;;;;0.70;0.70;;;12.30;99.90;;;;;;6240189;22;20410;-70
2022/10/02 10:14:11;;;;;;;1.40;1.13;;;12.30;99.90;;;;;;6221321;23;20421;-70
2022/10/02 10:17:07;;;;;;;2.13;0.40;;;12.20;99.90;;;;;;6242602;23;20409;-70
2022/10/02 10:19:58;;;;;;;3.90;0.73;;;12.30;99.90;;;;;;6205536;23;20450;-69
2022/10/02 10:22:57;;;;;;;0.40;0.40;;;12.40;99.90;;;;;;6244861;22;20965;-67
2022/10/02 10:25:54;;;;;;;3.37;0.80;;;12.60;99.90;;;;;;6246793;23;20429;-68
2022/10/02 10:28:52;;;;;;;0.57;0.57;;;12.70;99.90;;;;;;6245187;23;20466;-71
2022/10/02 10:32:04;;;;;;;0.40;0.40;;;13.00;99.90;;;;;;6243375;22;20552;-69
2022/10/02 10:34:58;;;;;;;2.10;0.70;;;13.20;99.90;;;;;;6200518;23;20423;-69
2022/10/02 10:40:50;;;;;;;3.00;0.77;;;13.30;99.90;;;;;;6243574;22;20432;-71
2022/10/02 10:43:54;;;;;;;0.53;0.53;;;13.50;99.90;;;;;;6242162;23;20410;-70
2022/10/02 10:46:55;;;;;;;0.80;0.80;;;13.50;99.90;;;;;;6242538;23;20901;-70
2022/10/02 10:49:56;;;;;;;0.70;0.70;;;13.50;99.90;;;;;;6241992;23;20841;-70
2022/10/02 10:52:37;;;;;;;3.03;2.27;;;13.50;99.90;;;;;;6242650;22;20596;-67
2022/10/02 10:55:15;;;;;;;1.00;1.00;;;13.60;99.90;;;;;;6243699;23;20411;-70
2022/10/02 10:58:07;;;;;;;0.80;0.80;;;13.70;99.90;;;;;;6242758;23;20714;-69
2022/10/02 11:00:39;;;;;;;1.90;0.70;;;13.80;99.90;;;;;;6242128;22;20454;-69
2022/10/02 11:03:38;;;;;;;2.23;0.90;;;14.00;99.90;;;;;;6242208;23;20465;-69
2022/10/02 11:06:38;;;;;;;6.00;1.60;;;14.10;99.90;;;;;;6243107;23;20422;-70
2022/10/02 11:09:32;;;;;;;7.90;0.90;;;14.20;99.90;;;;;;6242754;23;20482;-70
2022/10/02 11:12:44;;;;;;;1.47;1.30;;;14.30;99.90;;;;;;6242702;22;20440;-69
2022/10/02 11:15:27;;;;;;;1.20;1.20;;;14.50;99.90;;;;;;6199979;23;20924;-70
2022/10/02 11:18:13;;;;;;;0.50;0.50;;;14.70;99.90;;;;;;6241503;23;20418;-68
2022/10/02 11:21:11;;;;;;;2.53;2.00;;;14.60;99.90;;;;;;6242697;22;20458;-69
2022/10/02 11:24:12;;;;;;;1.00;1.00;;;14.50;99.90;;;;;;6231751;23;20423;-69
2022/10/02 11:26:49;;;;;;;0.47;0.47;;;14.50;99.90;;;;;;6224196;23;20429;-70
2022/10/02 11:29:40;;;;;;;2.33;1.20;;;14.40;99.90;;;;;;6242703;23;20403;-69
2022/10/02 11:35:13;;;;;;;0.60;0.60;;;14.40;99.90;;;;;;6240943;23;20417;-69
2022/10/02 11:37:58;;;;;;;2.47;0.80;;;14.30;99.90;;;;;;6242987;23;20710;-71
2022/10/02 11:40:49;;;;;;;1.60;0.50;;;14.20;99.90;;;;;;6242102;23;20438;-73
2022/10/02 11:43:33;;;;;;;0.40;0.40;;;14.20;99.90;;;;;;6242579;23;20889;-71
2022/10/02 11:46:14;;;;;;;1.17;0.40;;;14.20;99.90;;;;;;6242884;23;20417;-69
2022/10/02 11:48:59;;;;;;;4.10;0.90;;;14.30;99.90;;;;;;6242379;23;20427;-68
2022/10/02 11:52:07;;;;;;;0.40;0.40;;;14.40;99.90;;;;;;6243605;23;20416;-69
2022/10/02 11:54:46;;;;;;;3.27;1.07;;;14.60;99.90;;;;;;6241767;23;20447;-69
2022/10/02 11:57:28;;;;;;;2.57;0.87;;;14.80;99.90;;;;;;6243021;23;20502;-70
2022/10/02 12:00:23;;;;;;;2.83;1.80;;;14.80;99.90;;;;;;6242922;23;20430;-69
2022/10/02 12:02:58;;;;;;;0.70;0.70;;;15.00;99.90;;;;;;6239863;23;20478;-69
2022/10/02 12:05:45;;;;;;;0.47;0.47;;;15.10;99.90;;;;;;6241658;23;20738;-70
2022/10/02 12:08:23;;;;;;;0.43;0.43;;;15.30;99.90;;;;;;6242368;23;20432;-69
2022/10/02 12:10:56;;;;;;;2.97;0.37;;;15.50;99.90;;;;;;6243344;23;20498;-70
2022/10/02 12:13:46;;;;;;;2.43;0.97;;;15.60;99.90;;;;;;6241911;23;20448;-69
2022/10/02 12:16:24;;;;;;;2.50;0.60;;;15.60;99.90;;;;;;6238253;23;20428;-69
2022/10/02 12:19:04;;;;;;;0.50;0.50;;;15.50;99.90;;;;;;6242641;23;20404;-71
2022/10/02 12:27:35;;;;;;;0.70;0.70;;;15.40;99.90;;;;;;6241309;23;20391;-70
2022/10/02 12:30:07;;;;;;;3.70;0.80;;;15.40;99.90;;;;;;6242979;23;20461;-69
2022/10/02 12:32:53;;;;;;;4.33;0.60;;;15.40;99.90;;;;;;6241673;23;20439;-67
2022/10/02 12:35:31;;;;;;;0.40;0.40;;;15.40;99.90;;;;;;6242892;23;20418;-69
2022/10/02 12:38:11;;;;;;;2.40;0.53;;;15.30;99.90;;;;;;6242520;23;20477;-71
2022/10/02 12:40:51;;;;;;;4.07;1.60;;;15.40;99.90;;;;;;6242305;23;20432;-70
2022/10/02 12:43:49;;;;;;;0.97;0.63;;;15.40;99.90;;;;;;6241043;23;20497;-70
2022/10/02 12:46:39;;;;;;;0.40;0.30;;;15.50;99.90;;;;;;6230571;23;20427;-70
2022/10/02 12:49:21;;;;;;;2.00;0.30;;;15.50;99.90;;;;;;6241844;23;20403;-70
2022/10/02 12:52:12;;;;;;;0.87;0.57;;;15.50;99.90;;;;;;6243121;23;20430;-70
2022/10/02 12:54:59;;;;;;;2.57;0.60;;;15.50;99.90;;;;;;6241683;23;20873;-69
2022/10/02 12:58:01;;;;;;;3.27;0.83;;;15.60;99.90;;;;;;6241874;23;20408;-69
2022/10/02 13:00:40;;;;;;;1.07;0.87;;;15.70;99.90;;;;;;6242104;23;20929;-71
2022/10/02 13:03:39;;;;;;;5.60;1.00;;;15.80;99.90;;;;;;6241496;23;20562;-70
2022/10/02 13:06:23;;;;;;;0.30;0.30;;;15.80;99.90;;;;;;6242877;23;20430;-69
2022/10/02 13:09:05;;;;;;;3.13;2.73;;;15.80;99.90;;;;;;6242148;23;20412;-69
2022/10/02 13:11:43;;;;;;;12.60;1.53;;;15.90;99.90;;;;;;6242630;23;20475;-68
2022/10/02 13:14:26;;;;;;;1.27;0.77;;;16.00;99.90;;;;;;6241324;23;20443;-68
2022/10/02 13:17:16;;;;;;;0.30;0.30;;;16.10;99.90;;;;;;6241376;23;20411;-68
2022/10/02 13:19:56;;;;;;;2.40;0.93;;;16.30;99.90;;;;;;6242600;23;20448;-68
2022/10/02 13:22:33;;;;;;;3.60;1.00;;;16.40;99.90;;;;;;6242440;23;20408;-69
2022/10/02 13:25:24;;;;;;;5.43;0.70;;;16.30;99.90;;;;;;6242939;23;20404;-69
2022/10/02 13:28:04;;;;;;;0.40;0.40;;;16.00;99.90;;;;;;6242187;23;20416;-70
2022/10/02 13:30:36;;;;;;;0.30;0.30;;;15.70;99.90;;;;;;6241416;23;20727;-69
2022/10/02 13:33:18;;;;;;;0.40;0.40;;;15.50;99.90;;;;;;6241848;23;20785;-69
2022/10/02 13:36:00;;;;;;;0.93;0.30;;;15.40;99.90;;;;;;6242508;23;20413;-69
2022/10/02 13:38:48;;;;;;;0.30;0.30;;;15.40;99.90;;;;;;6242734;23;20561;-70
2022/10/02 13:41:26;;;;;;;2.00;0.40;;;15.40;99.90;;;;;;6242569;23;20502;-69
2022/10/02 13:44:11;;;;;;;0.40;0.40;;;15.40;99.90;;;;;;6242121;23;20465;-68
2022/10/02 13:47:00;;;;;;;0.87;0.30;;;15.40;99.90;;;;;;6242138;23;20418;-70
2022/10/02 13:49:40;;;;;;;1.57;1.10;;;15.40;99.90;;;;;;6244042;23;20497;-70
2022/10/02 13:52:18;;;;;;;0.30;0.30;;;15.50;99.90;;;;;;6246817;23;20447;-69
2022/10/02 13:55:30;;;;;;;1.37;1.27;;;15.50;99.90;;;;;;6245322;23;20407;-69
2022/10/02 13:58:19;;;;;;;0.53;0.37;;;15.60;99.90;;;;;;6177234;23;20502;-71
2022/10/02 14:00:58;;;;;;;0.20;0.20;;;15.70;99.90;;;;;;6245137;23;20735;-69
2022/10/02 14:03:48;;;;;;;4.23;0.50;;;15.70;99.90;;;;;;6244748;23;20446;-70
2022/10/02 14:06:21;;;;;;;0.20;0.20;;;15.70;99.90;;;;;;6237809;23;20925;-70
2022/10/02 14:09:12;;;;;;;1.13;1.13;;;15.60;99.90;;;;;;6245459;23;20779;-70
2022/10/02 14:11:52;;;;;;;1.60;0.77;;;15.50;99.90;;;;;;6244254;23;20420;-70
2022/10/02 14:14:34;;;;;;;2.00;0.60;;;15.50;99.90;;;;;;6242213;23;20780;-69
2022/10/02 14:17:13;;;;;;;3.07;0.97;;;15.40;99.90;;;;;;6241632;23;20407;-69
2022/10/02 14:19:54;;;;;;;3.73;1.00;;;15.40;99.90;;;;;;6241876;23;20490;-70
2022/10/02 14:22:35;;;;;;;0.83;0.30;;;15.30;99.90;;;;;;6242296;23;20407;-70
2022/10/02 14:25:22;;;;;;;2.23;0.40;;;15.30;99.90;;;;;;6241900;23;20429;-71
2022/10/02 14:28:01;;;;;;;2.57;0.93;;;15.20;99.90;;;;;;6241858;23;20769;-71
2022/10/02 14:30:38;;;;;;;0.20;0.20;;;15.20;99.90;;;;;;6242460;23;20411;-71
2022/10/02 14:33:15;;;;;;;3.17;0.90;;;15.30;99.90;;;;;;6242791;23;20457;-70
2022/10/02 14:35:53;;;;;;;4.13;0.83;;;15.20;99.90;;;;;;6242600;23;20457;-72
2022/10/02 14:38:36;;;;;;;2.40;0.43;;;15.10;99.90;;;;;;6244069;23;20407;-70
2022/10/02 14:41:17;;;;;;;1.70;0.60;;;15.10;99.90;;;;;;6243304;23;20453;-69
2022/10/02 14:44:06;;;;;;;5.53;0.80;;;15.10;99.90;;;;;;6243464;23;20443;-70
2022/10/02 14:47:00;;;;;;;0.77;0.77;;;15.20;99.90;;;;;;6242967;23;20462;-69
2022/10/02 14:49:40;;;;;;;2.40;0.73;;;15.30;99.90;;;;;;6242376;23;20407;-69
2022/10/02 14:52:28;;;;;;;1.43;0.60;;;15.40;99.90;;;;;;6254489;23;20404;-69
2022/10/02 14:55:19;;;;;;;2.60;1.07;;;15.50;99.90;;;;;;6242793;23;20408;-69
2022/10/02 14:58:13;;;;;;;1.90;1.17;;;15.50;99.90;;;;;;6243801;23;20426;-69
2022/10/02 15:00:48;;;;;;;14.07;0.93;;;15.50;99.90;;;;;;6242529;23;20435;-69
2022/10/02 15:03:49;;;;;;;4.10;0.50;;;15.50;99.90;;;;;;6242213;23;20440;-70
2022/10/02 15:06:36;;;;;;;13.17;1.60;;;15.40;99.90;;;;;;6242334;23;20463;-69
2022/10/02 15:09:13;;;;;;;6.33;0.90;;;15.40;99.90;;;;;;6243278;23;20423;-71
2022/10/02 15:11:57;;;;;;;7.93;0.60;;;15.40;99.90;;;;;;6242758;23;20400;-69
2022/10/02 15:14:31;;;;;;;0.47;0.40;;;15.30;99.90;;;;;;6243584;23;20770;-69
2022/10/02 15:19:51;;;;;;;1.27;1.17;;;15.20;99.90;;;;;;6242894;23;20442;-69
2022/10/02 15:22:21;;;;;;;0.40;0.40;;;15.10;99.90;;;;;;6241017;23;20912;-70
2022/10/02 15:24:56;;;;;;;4.63;0.90;;;15.10;99.90;;;;;;6243346;23;20470;-69
2022/10/02 15:27:24;;;;;;;1.80;1.33;;;15.00;99.90;;;;;;6241478;23;20952;-69
2022/10/02 15:30:11;;;;;;;1.03;0.30;;;15.00;99.90;;;;;;6243120;23;20511;-69
2022/10/02 15:32:55;;;;;;;1.27;0.77;;;15.00;99.90;;;;;;6240786;23;20447;-72
2022/10/02 15:35:32;;;;;;;5.00;1.03;;;15.00;99.90;;;;;;6240944;23;20408;-70
2022/10/02 15:38:21;;;;;;;0.30;0.20;;;14.90;99.90;;;;;;6241780;23;20413;-70
2022/10/02 15:41:04;;;;;;;2.03;0.40;;;14.80;99.90;;;;;;6241267;23;20438;-69
2022/10/02 15:43:44;;;;;;;2.10;0.70;;;14.80;99.90;;;;;;6242324;23;20459;-70
2022/10/02 15:46:21;;;;;;;0.30;0.30;;;14.70;99.90;;;;;;6241810;23;20801;-69
2022/10/02 15:48:58;;;;;;;0.37;0.37;;;14.60;99.90;;;;;;6252076;23;20404;-69
2022/10/02 15:51:38;;;;;;;1.77;0.50;;;14.50;99.90;;;;;;6243260;23;20465;-69
2022/10/02 15:54:14;;;;;;;0.50;0.50;;;14.50;99.90;;;;;;6241880;23;20445;-69
2022/10/02 15:56:55;;;;;;;1.63;0.57;;;14.50;99.90;;;;;;6241192;23;20410;-68
2022/10/02 15:59:46;;;;;;;3.80;0.70;;;14.40;99.90;;;;;;6242907;23;20888;-69
2022/10/02 16:02:30;;;;;;;3.90;0.97;;;14.30;99.90;;;;;;6242156;23;20431;-69
2022/10/02 16:05:14;;;;;;;1.47;0.90;;;14.30;99.90;;;;;;6240967;23;20410;-68
2022/10/02 16:08:04;;;;;;;3.20;0.70;;;14.20;99.90;;;;;;6241149;23;20488;-68
2022/10/02 16:10:37;;;;;;;1.50;0.90;;;14.10;99.90;;;;;;6241608;23;20842;-70
2022/10/02 16:13:23;;;;;;;0.43;0.43;;;14.00;99.90;;;;;;6241487;23;20442;-69
2022/10/02 16:15:53;;;;;;;0.93;0.93;;;14.00;99.90;;;;;;6241493;23;20407;-69
2022/10/02 16:18:41;;;;;;;3.43;1.13;;;14.00;99.90;;;;;;6241502;23;20870;-69
2022/10/02 16:21:43;;;;;;;5.00;0.80;;;13.90;99.90;;;;;;6242635;23;20475;-68
2022/10/02 16:24:57;;;;;;;6.37;0.63;;;13.90;99.90;;;;;;6242581;23;20465;-70
2022/10/02 16:27:31;;;;;;;2.50;0.77;;;13.90;99.90;;;;;;6212369;23;20426;-68
2022/10/02 16:30:15;;;;;;;1.90;0.73;;;13.80;99.90;;;;;;6241960;23;20421;-70
2022/10/02 16:33:13;;;;;;;2.67;1.87;;;13.70;99.90;;;;;;6237576;23;20458;-70
2022/10/02 16:35:54;;;;;;;2.30;1.27;;;13.70;99.90;;;;;;6229911;23;20430;-70
2022/10/02 16:38:28;;;;;;;1.80;1.70;;;13.60;99.90;;;;;;6242228;23;20406;-70
2022/10/02 16:40:57;;;;;;;1.33;1.10;;;13.60;99.90;;;;;;6240514;23;20760;-70
2022/10/02 16:43:47;;;;;;;3.90;0.87;;;13.60;99.90;;;;;;6238385;23;20940;-71
2022/10/02 16:46:20;;;;;;;3.60;1.23;;;13.50;99.90;;;;;;6239672;23;20425;-71
2022/10/02 16:48:54;;;;;;;2.97;0.93;;;13.40;99.90;;;;;;6240066;23;20462;-68
2022/10/02 16:51:44;;;;;;;1.03;0.40;;;13.40;99.90;;;;;;6239156;23;20705;-69
2022/10/02 16:54:18;;;;;;;2.10;0.60;;;13.40;99.90;;;;;;6237834;23;20549;-70
2022/10/02 16:56:52;;;;;;;4.77;0.80;;;13.40;99.90;;;;;;6240833;23;21255;-69
2022/10/02 16:59:25;;;;;;;5.90;1.60;;;13.30;99.90;;;;;;6241427;23;21209;-70
2022/10/02 17:01:57;;;;;;;7.37;1.77;;;13.20;99.90;;;;;;6241631;23;20431;-71
2022/10/02 17:04:37;;;;;;;0.60;0.60;;;13.20;99.90;;;;;;6240699;23;20452;-70
2022/10/02 17:07:24;;;;;;;3.88;1.67;;;13.20;99.90;;;;;;6242218;23;20407;-67
2022/10/02 17:09:57;;;;;;;1.23;1.10;;;13.10;99.90;;;;;;6239392;23;20472;-70
2022/10/02 17:12:30;;;;;;;2.73;0.57;;;13.10;99.90;;;;;;6240742;23;20407;-70
2022/10/02 17:15:00;;;;;;;3.50;1.80;;;13.10;99.90;;;;;;6241619;23;20421;-70
2022/10/02 17:17:35;;;;;;;5.05;1.83;;;13.00;99.90;;;;;;6241443;23;20163;-68
2022/10/02 17:20:16;;;;;;;2.33;0.93;;;12.90;99.90;;;;;;6240754;23;20162;-68
2022/10/02 17:22:51;;;;;;;3.30;1.40;;;12.90;99.90;;;;;;6241488;23;20727;-68
2022/10/02 17:25:28;;;;;;;1.13;0.95;;;12.80;99.90;;;;;;6241957;23;20197;-67
2022/10/02 17:27:59;;;;;;;1.63;1.17;;;12.80;99.90;;;;;;6241767;23;20170;-70
2022/10/02 17:30:29;;;;;;;5.38;2.25;;;12.80;99.90;;;;;;6238438;23;20417;-70
2022/10/02 17:33:11;;;;;;;2.45;0.80;;;12.70;99.90;;;;;;6240650;23;20558;-66
2022/10/02 17:35:46;;;;;;;9.13;3.20;;;12.70;99.90;;;;;;6240443;23;20173;-67
2022/10/02 17:38:45;;;;;;;0.60;0.60;;;12.70;99.90;;;;;;6241996;23;20406;-69
2022/10/02 17:41:23;;;;;;;7.38;1.95;;;12.70;99.90;;;;;;6190887;23;20543;-68
2022/10/02 17:44:01;;;;;;;2.38;1.50;;;12.70;99.90;;;;;;6240441;23;20198;-68
2022/10/02 17:46:54;;;;;;;7.05;2.08;;;12.70;99.90;;;;;;6238920;23;20199;-68
2022/10/02 17:49:31;;;;;;;4.63;1.40;;;12.70;99.90;;;;;;6240249;23;20172;-67
2022/10/02 17:56:26;;;;;;;9.15;1.05;;;12.60;99.90;;;;;;6240979;23;20159;-67
2022/10/02 17:58:02;;;;;;;2.35;1.15;;;12.60;99.90;;;;;;6249798;23;20225;-68
2022/10/02 18:00:33;;;;;;;17.02;1.80;;;12.60;99.90;;;;;;6241470;23;20266;-68
2022/10/02 18:03:30;;;;;;;7.53;1.55;;;12.60;99.90;;;;;;6242485;23;20231;-70
2022/10/02 18:06:13;;;;;;;2.47;1.02;;;12.70;99.90;;;;;;6244904;23;20190;-71
2022/10/02 18:09:02;;;;;;;4.90;1.20;;;12.70;99.90;;;;;;6248193;23;20315;-72
2022/10/02 18:11:55;;;;;;;6.17;2.13;;;12.70;99.90;;;;;;6246827;23;20173;-72
2022/10/02 18:14:47;;;;;;;1.55;1.55;;;12.70;99.90;;;;;;6240639;23;20452;-72
2022/10/02 18:17:21;;;;;;;9.35;1.67;;;12.70;99.90;;;;;;6244786;23;20177;-73
2022/10/02 18:19:59;;;;;;;1.05;1.05;;;12.60;99.90;;;;;;6242845;23;20261;-71
2022/10/02 18:22:45;;;;;;;2.75;2.05;;;12.60;99.90;;;;;;6243284;23;20186;-70
2022/10/02 18:25:35;;;;;;;1.27;1.27;;;12.60;99.90;;;;;;6242509;23;20177;-71
2022/10/02 18:28:34;;;;;;;1.10;1.00;;;12.60;99.90;;;;;;6242189;23;20180;-70